Time;durP1;ratioP1;P1;durP2;ratioP2;P2;SDS_P1;SDS_P2;PMS_P1;PMS_P2;Temp;Humidity;BMP_temperature;BMP_pressure;BME280_temperature;BME280_humidity;BME280_pressure;Samples;Min_cycle;Max_cycle;Signal;HPM_P1;HPM_P2
2023/12/30 00:00:12;;;;;;;3.67;1.20;;;;;;;;;;5047509;28;21405;-69
2023/12/30 00:02:46;;;;;;;5.50;1.20;;;;;;;;;;5036466;28;20436;-69
2023/12/30 00:05:16;;;;;;;3.95;1.10;;;;;;;;;;5039227;28;20849;-69
2023/12/30 00:07:44;;;;;;;2.20;1.10;;;;;;;;;;5034835;28;20477;-69
2023/12/30 00:10:11;;;;;;;2.75;1.10;;;;;;;;;;5044663;28;20434;-69
2023/12/30 00:12:38;;;;;;;2.10;1.20;;;;;;;;;;5035361;28;20430;-69
2023/12/30 00:15:06;;;;;;;1.43;1.07;;;;;;;;;;5044652;28;20444;-69
2023/12/30 00:17:33;;;;;;;4.50;1.17;;;;;;;;;;5038057;28;20444;-69
2023/12/30 00:20:00;;;;;;;3.03;1.00;;;;;;;;;;5043932;28;20464;-69
2023/12/30 00:22:28;;;;;;;1.67;0.90;;;;;;;;;;5036166;28;20790;-69
2023/12/30 00:24:55;;;;;;;3.45;1.00;;;;;;;;;;5038067;28;20437;-69
2023/12/30 00:27:22;;;;;;;2.50;1.02;;;;;;;;;;5041018;28;20427;-69
2023/12/30 00:29:50;;;;;;;2.33;1.00;;;;;;;;;;5040066;28;20425;-69
2023/12/30 00:32:17;;;;;;;2.60;1.05;;;;;;;;;;5037236;28;20422;-69
2023/12/30 00:34:45;;;;;;;3.00;0.80;;;;;;;;;;5030996;28;20454;-70
2023/12/30 00:37:18;;;;;;;2.90;0.93;;;;;;;;;;5039258;28;20910;-70
2023/12/30 00:39:46;;;;;;;1.65;0.95;;;;;;;;;;5040613;28;20456;-69
2023/12/30 00:42:16;;;;;;;3.40;1.20;;;;;;;;;;5039521;28;20516;-69
2023/12/30 00:44:43;;;;;;;1.45;1.00;;;;;;;;;;5039919;28;20768;-69
2023/12/30 00:47:11;;;;;;;1.83;1.08;;;;;;;;;;5039513;28;20429;-69
2023/12/30 00:49:39;;;;;;;1.80;0.90;;;;;;;;;;5040564;28;20438;-70
2023/12/30 00:52:06;;;;;;;2.30;1.02;;;;;;;;;;5031843;28;20525;-69
2023/12/30 00:54:33;;;;;;;2.17;0.90;;;;;;;;;;5044610;28;20433;-69
2023/12/30 00:57:13;;;;;;;1.73;0.97;;;;;;;;;;5032633;28;20439;-69
2023/12/30 00:59:40;;;;;;;1.63;0.80;;;;;;;;;;5038073;28;20444;-69
2023/12/30 01:02:08;;;;;;;1.77;0.90;;;;;;;;;;5035525;28;20485;-69
2023/12/30 01:04:35;;;;;;;1.67;1.10;;;;;;;;;;5029175;28;20439;-69
2023/12/30 01:07:02;;;;;;;1.90;0.95;;;;;;;;;;5039147;28;20433;-69
2023/12/30 01:09:30;;;;;;;2.50;0.90;;;;;;;;;;5042757;28;20431;-69
2023/12/30 01:11:57;;;;;;;2.85;0.98;;;;;;;;;;5037777;28;20502;-69
2023/12/30 01:14:24;;;;;;;3.22;0.90;;;;;;;;;;5031589;28;20488;-69
2023/12/30 01:16:53;;;;;;;1.80;0.80;;;;;;;;;;5042302;28;20460;-69
2023/12/30 01:19:21;;;;;;;2.55;0.75;;;;;;;;;;5041473;28;20433;-69
2023/12/30 01:21:48;;;;;;;2.05;0.90;;;;;;;;;;5041001;28;20437;-69
2023/12/30 01:24:15;;;;;;;1.17;0.80;;;;;;;;;;5043698;28;20919;-69
2023/12/30 01:26:42;;;;;;;1.92;0.80;;;;;;;;;;5039447;28;20504;-69
2023/12/30 01:29:17;;;;;;;3.75;0.70;;;;;;;;;;5041422;28;20466;-69
2023/12/30 01:31:44;;;;;;;2.83;0.93;;;;;;;;;;5036890;28;20504;-69
2023/12/30 01:34:11;;;;;;;4.90;0.90;;;;;;;;;;5031763;28;20430;-69
2023/12/30 01:36:39;;;;;;;0.98;0.80;;;;;;;;;;5047804;28;20437;-69
2023/12/30 01:39:06;;;;;;;2.55;1.00;;;;;;;;;;5041844;28;20498;-69
2023/12/30 01:41:33;;;;;;;4.00;1.10;;;;;;;;;;5036465;28;20431;-69
2023/12/30 01:44:01;;;;;;;3.10;0.77;;;;;;;;;;5028232;28;20467;-69
2023/12/30 01:46:28;;;;;;;2.10;0.70;;;;;;;;;;5040411;28;20521;-69
2023/12/30 01:48:55;;;;;;;3.30;0.88;;;;;;;;;;5031047;28;20435;-69
2023/12/30 01:51:23;;;;;;;2.63;1.00;;;;;;;;;;5029204;28;20431;-69
2023/12/30 01:53:53;;;;;;;3.67;1.00;;;;;;;;;;5029544;28;20438;-69
2023/12/30 01:56:21;;;;;;;2.75;0.90;;;;;;;;;;5024077;28;20437;-69
2023/12/30 01:58:50;;;;;;;1.80;0.63;;;;;;;;;;5040098;28;20799;-69
2023/12/30 02:01:18;;;;;;;1.90;0.75;;;;;;;;;;5038701;28;20434;-69
2023/12/30 02:03:48;;;;;;;1.90;0.80;;;;;;;;;;5041900;28;20522;-69
2023/12/30 02:06:15;;;;;;;2.20;0.90;;;;;;;;;;5032534;28;20433;-69
2023/12/30 02:08:42;;;;;;;1.48;0.75;;;;;;;;;;5043871;28;20434;-69
2023/12/30 02:11:10;;;;;;;2.97;1.00;;;;;;;;;;5043090;28;20433;-69
2023/12/30 02:13:43;;;;;;;2.17;0.82;;;;;;;;;;5031458;28;20796;-70
2023/12/30 02:16:11;;;;;;;2.70;0.95;;;;;;;;;;5044135;28;20516;-69
2023/12/30 02:18:38;;;;;;;2.00;0.70;;;;;;;;;;5047812;28;20833;-72
2023/12/30 02:21:06;;;;;;;1.92;0.65;;;;;;;;;;5039905;28;20464;-69
2023/12/30 02:23:33;;;;;;;0.68;0.60;;;;;;;;;;5035129;28;20485;-69
2023/12/30 02:26:00;;;;;;;2.58;0.60;;;;;;;;;;5040949;28;20476;-69
2023/12/30 02:28:27;;;;;;;2.28;0.80;;;;;;;;;;5041891;28;20425;-69
2023/12/30 02:30:57;;;;;;;2.17;0.70;;;;;;;;;;5037861;28;21156;-69
2023/12/30 02:33:24;;;;;;;2.20;0.75;;;;;;;;;;5043141;28;20472;-69
2023/12/30 02:35:52;;;;;;;1.70;0.98;;;;;;;;;;5029946;28;20977;-69
2023/12/30 02:38:19;;;;;;;1.98;1.10;;;;;;;;;;5038664;28;20906;-69
2023/12/30 02:40:46;;;;;;;2.25;1.00;;;;;;;;;;5037809;28;20434;-69
2023/12/30 02:43:14;;;;;;;5.32;1.00;;;;;;;;;;5038806;28;20429;-69
2023/12/30 02:45:44;;;;;;;1.40;0.88;;;;;;;;;;5035384;28;20778;-69
2023/12/30 02:48:11;;;;;;;1.00;0.70;;;;;;;;;;5035998;28;20464;-68
2023/12/30 02:50:39;;;;;;;3.38;0.70;;;;;;;;;;5037404;28;20480;-69
2023/12/30 02:53:06;;;;;;;3.00;0.70;;;;;;;;;;5039197;28;20425;-70
2023/12/30 02:55:33;;;;;;;1.45;0.70;;;;;;;;;;5041216;28;20786;-68
2023/12/30 02:58:00;;;;;;;2.35;0.80;;;;;;;;;;5037984;28;21473;-69
2023/12/30 03:00:27;;;;;;;0.80;0.60;;;;;;;;;;5036070;28;21035;-70
2023/12/30 03:02:57;;;;;;;2.70;0.80;;;;;;;;;;5036168;28;20461;-69
2023/12/30 03:05:27;;;;;;;2.80;0.90;;;;;;;;;;5028082;28;20496;-69
2023/12/30 03:07:58;;;;;;;2.70;0.90;;;;;;;;;;5033007;28;20458;-69
2023/12/30 03:10:28;;;;;;;3.17;1.00;;;;;;;;;;5032202;28;20474;-69
2023/12/30 03:12:55;;;;;;;2.27;0.90;;;;;;;;;;5038595;28;20460;-69
2023/12/30 03:15:23;;;;;;;2.83;0.90;;;;;;;;;;5032784;28;20434;-69
2023/12/30 03:17:50;;;;;;;2.10;1.20;;;;;;;;;;5042172;28;20831;-69
2023/12/30 03:20:19;;;;;;;2.47;0.90;;;;;;;;;;5029068;28;20426;-70
2023/12/30 03:22:47;;;;;;;2.10;1.00;;;;;;;;;;5041113;28;20440;-69
2023/12/30 03:25:14;;;;;;;2.88;1.15;;;;;;;;;;5035276;28;20469;-69
2023/12/30 03:27:43;;;;;;;1.17;0.88;;;;;;;;;;5043898;28;20433;-69
2023/12/30 03:30:10;;;;;;;2.28;0.93;;;;;;;;;;5041684;28;20508;-69
2023/12/30 03:32:38;;;;;;;5.03;0.90;;;;;;;;;;5035140;28;20551;-69
2023/12/30 03:35:08;;;;;;;5.55;1.20;;;;;;;;;;5039413;28;21100;-69
2023/12/30 03:37:35;;;;;;;3.28;1.15;;;;;;;;;;5034681;28;20487;-69
2023/12/30 03:40:02;;;;;;;1.52;1.00;;;;;;;;;;5042521;28;20908;-69
2023/12/30 03:42:30;;;;;;;2.50;1.02;;;;;;;;;;5035788;28;20473;-69
2023/12/30 03:45:01;;;;;;;3.93;1.07;;;;;;;;;;5036612;28;20433;-69
2023/12/30 03:47:28;;;;;;;2.67;1.20;;;;;;;;;;5039750;28;21080;-69
2023/12/30 03:49:55;;;;;;;3.60;0.80;;;;;;;;;;5036606;28;20435;-69
2023/12/30 03:52:23;;;;;;;4.40;0.90;;;;;;;;;;5037856;28;20431;-69
2023/12/30 03:54:51;;;;;;;2.95;0.80;;;;;;;;;;5038008;28;20431;-69
2023/12/30 03:57:25;;;;;;;2.50;1.00;;;;;;;;;;5029673;28;20443;-69
2023/12/30 03:59:55;;;;;;;2.25;0.70;;;;;;;;;;5040694;28;20461;-69
2023/12/30 04:02:22;;;;;;;2.97;1.02;;;;;;;;;;5038915;28;20435;-69
2023/12/30 04:04:49;;;;;;;4.33;1.00;;;;;;;;;;5045349;28;20469;-69
2023/12/30 04:07:16;;;;;;;2.17;1.35;;;;;;;;;;5051504;28;20508;-69
2023/12/30 04:09:44;;;;;;;1.73;0.82;;;;;;;;;;5044638;28;20474;-69
2023/12/30 04:12:11;;;;;;;4.57;1.00;;;;;;;;;;5046606;28;20903;-69
2023/12/30 04:14:39;;;;;;;1.88;0.80;;;;;;;;;;5042498;28;20485;-69
2023/12/30 04:17:14;;;;;;;4.75;1.15;;;;;;;;;;5036095;28;20917;-69
2023/12/30 04:19:41;;;;;;;4.33;0.70;;;;;;;;;;5038269;28;20435;-69
2023/12/30 04:22:09;;;;;;;1.90;0.80;;;;;;;;;;5037303;28;20430;-69
2023/12/30 04:24:36;;;;;;;3.47;1.02;;;;;;;;;;5032952;28;20434;-70
2023/12/30 04:27:08;;;;;;;2.00;1.30;;;;;;;;;;5039673;28;20510;-70
2023/12/30 04:29:35;;;;;;;5.03;1.13;;;;;;;;;;5034755;28;21014;-70
2023/12/30 04:32:02;;;;;;;4.20;1.02;;;;;;;;;;5042031;28;20426;-70
2023/12/30 04:34:30;;;;;;;3.53;0.88;;;;;;;;;;5036452;28;20512;-70
2023/12/30 04:37:00;;;;;;;3.40;1.13;;;;;;;;;;5038172;28;20766;-69
2023/12/30 04:39:27;;;;;;;2.42;0.90;;;;;;;;;;5038215;28;20439;-70
2023/12/30 04:41:57;;;;;;;2.50;1.00;;;;;;;;;;5042493;28;20521;-69
2023/12/30 04:44:24;;;;;;;2.75;1.25;;;;;;;;;;5029501;28;20510;-70
2023/12/30 04:46:52;;;;;;;3.33;1.00;;;;;;;;;;5034360;28;20453;-70
2023/12/30 04:49:19;;;;;;;3.92;1.00;;;;;;;;;;5047865;28;20425;-70
2023/12/30 04:51:49;;;;;;;3.03;0.88;;;;;;;;;;5040371;28;20492;-70
2023/12/30 04:54:16;;;;;;;3.50;1.00;;;;;;;;;;5048806;28;21149;-70
2023/12/30 04:56:43;;;;;;;3.40;1.08;;;;;;;;;;5040510;28;20911;-70
2023/12/30 04:59:13;;;;;;;4.85;1.08;;;;;;;;;;5033272;28;20488;-70
2023/12/30 05:01:40;;;;;;;5.05;1.20;;;;;;;;;;5032818;28;20470;-70
2023/12/30 05:04:07;;;;;;;3.63;1.08;;;;;;;;;;5038417;28;20971;-70
2023/12/30 05:06:34;;;;;;;3.42;1.00;;;;;;;;;;5040259;28;20439;-70
2023/12/30 05:09:01;;;;;;;4.65;1.10;;;;;;;;;;5031966;28;20584;-69
2023/12/30 05:11:29;;;;;;;3.40;1.27;;;;;;;;;;5045323;28;20516;-70
2023/12/30 05:13:56;;;;;;;3.42;1.10;;;;;;;;;;5041871;28;20497;-70
2023/12/30 05:16:23;;;;;;;4.13;1.33;;;;;;;;;;5042294;28;20458;-70
2023/12/30 05:18:51;;;;;;;3.70;1.37;;;;;;;;;;5041151;28;20423;-70
2023/12/30 05:21:18;;;;;;;7.75;1.40;;;;;;;;;;5032792;28;20832;-70
2023/12/30 05:23:45;;;;;;;4.22;1.17;;;;;;;;;;5033364;28;20438;-70
2023/12/30 05:26:13;;;;;;;5.03;1.35;;;;;;;;;;5029275;28;20469;-74
2023/12/30 05:28:40;;;;;;;3.75;1.20;;;;;;;;;;5036401;28;20979;-70
2023/12/30 05:31:10;;;;;;;3.53;1.20;;;;;;;;;;5037838;28;21140;-70
2023/12/30 05:33:38;;;;;;;4.45;1.10;;;;;;;;;;5037579;28;20433;-70
2023/12/30 05:36:05;;;;;;;3.80;1.50;;;;;;;;;;5040011;28;20858;-70
2023/12/30 05:38:38;;;;;;;5.50;1.58;;;;;;;;;;5029968;28;20442;-70
2023/12/30 05:41:05;;;;;;;4.20;1.70;;;;;;;;;;5035636;28;21183;-70
2023/12/30 05:43:32;;;;;;;3.05;1.25;;;;;;;;;;5036400;28;20804;-70
2023/12/30 05:46:00;;;;;;;4.05;1.25;;;;;;;;;;5033699;28;20545;-70
2023/12/30 05:48:27;;;;;;;1.70;1.00;;;;;;;;;;5035972;28;20457;-70
2023/12/30 05:50:54;;;;;;;4.80;1.48;;;;;;;;;;5034624;28;20456;-70
2023/12/30 05:53:23;;;;;;;1.77;1.17;;;;;;;;;;5037790;28;20926;-70
2023/12/30 05:55:52;;;;;;;2.50;1.27;;;;;;;;;;5037416;28;20440;-70
2023/12/30 05:58:19;;;;;;;5.30;1.50;;;;;;;;;;5041956;28;20477;-70
2023/12/30 06:00:47;;;;;;;3.30;1.20;;;;;;;;;;5037216;28;20435;-70
2023/12/30 06:03:14;;;;;;;3.08;1.35;;;;;;;;;;5040615;28;20431;-71
2023/12/30 06:05:41;;;;;;;2.08;1.27;;;;;;;;;;5034530;28;20945;-70
2023/12/30 06:08:08;;;;;;;3.40;1.30;;;;;;;;;;5044488;28;20468;-70
2023/12/30 06:10:36;;;;;;;2.95;1.15;;;;;;;;;;5044710;28;20513;-70
2023/12/30 06:13:03;;;;;;;4.18;1.25;;;;;;;;;;5032535;28;20437;-69
2023/12/30 06:15:31;;;;;;;3.60;1.20;;;;;;;;;;5037053;28;20540;-69
2023/12/30 06:17:58;;;;;;;2.83;1.17;;;;;;;;;;5044438;28;20546;-69
2023/12/30 06:20:25;;;;;;;4.40;1.25;;;;;;;;;;5046634;28;20459;-70
2023/12/30 06:22:52;;;;;;;2.72;1.13;;;;;;;;;;5037530;28;20441;-70
2023/12/30 06:25:20;;;;;;;5.78;1.30;;;;;;;;;;5040481;28;20437;-70
2023/12/30 06:27:48;;;;;;;4.85;1.45;;;;;;;;;;5028729;28;20434;-70
2023/12/30 06:30:15;;;;;;;2.80;1.13;;;;;;;;;;5043173;28;20499;-70
2023/12/30 06:32:42;;;;;;;5.30;1.30;;;;;;;;;;5030840;28;20437;-70
2023/12/30 06:35:12;;;;;;;5.03;1.20;;;;;;;;;;5034950;28;20516;-70
2023/12/30 06:37:39;;;;;;;3.88;1.10;;;;;;;;;;5033800;28;20437;-69
2023/12/30 06:40:07;;;;;;;5.35;1.13;;;;;;;;;;5038542;28;20784;-69
2023/12/30 06:42:34;;;;;;;1.77;0.80;;;;;;;;;;5045288;28;20425;-69
2023/12/30 06:45:01;;;;;;;4.38;0.88;;;;;;;;;;5039215;28;20979;-69
2023/12/30 06:47:29;;;;;;;2.35;0.93;;;;;;;;;;5041342;28;20777;-69
2023/12/30 06:49:56;;;;;;;1.30;0.80;;;;;;;;;;5040687;28;20857;-69
2023/12/30 06:52:25;;;;;;;1.73;0.67;;;;;;;;;;5036279;28;20435;-69
2023/12/30 06:54:53;;;;;;;4.28;0.90;;;;;;;;;;5035969;28;20503;-69
2023/12/30 06:57:36;;;;;;;2.00;0.70;;;;;;;;;;5047244;28;20794;-69
2023/12/30 07:00:04;;;;;;;1.80;0.80;;;;;;;;;;5048090;28;20427;-69
2023/12/30 07:02:31;;;;;;;2.55;0.60;;;;;;;;;;5035423;28;20490;-69
2023/12/30 07:04:59;;;;;;;2.35;0.85;;;;;;;;;;5047425;28;20521;-69
2023/12/30 07:07:26;;;;;;;2.42;0.70;;;;;;;;;;5045644;28;20429;-69
2023/12/30 07:09:53;;;;;;;2.75;0.70;;;;;;;;;;5044632;28;20426;-69
2023/12/30 07:12:21;;;;;;;1.92;0.80;;;;;;;;;;5047785;28;20880;-69
2023/12/30 07:14:51;;;;;;;4.07;0.68;;;;;;;;;;5042271;28;20520;-69
2023/12/30 07:17:18;;;;;;;2.08;0.80;;;;;;;;;;5041670;28;20428;-70
2023/12/30 07:19:46;;;;;;;1.23;0.77;;;;;;;;;;5047544;28;20625;-69
2023/12/30 07:22:14;;;;;;;2.20;0.80;;;;;;;;;;5041533;28;20440;-70
2023/12/30 07:24:41;;;;;;;2.97;0.88;;;;;;;;;;5041446;28;20436;-69
2023/12/30 07:27:08;;;;;;;3.33;0.80;;;;;;;;;;5036674;28;20466;-69
2023/12/30 07:29:38;;;;;;;1.92;0.60;;;;;;;;;;5032826;28;20493;-68
2023/12/30 07:32:05;;;;;;;1.83;0.73;;;;;;;;;;5042770;28;20504;-68
2023/12/30 07:34:35;;;;;;;1.70;0.60;;;;;;;;;;5036222;28;20433;-69
2023/12/30 07:37:03;;;;;;;5.07;0.83;;;;;;;;;;5043788;28;20946;-68
2023/12/30 07:39:32;;;;;;;1.10;0.80;;;;;;;;;;5030479;28;20431;-69
2023/12/30 07:42:06;;;;;;;0.85;0.60;;;;;;;;;;5037262;28;20427;-70
2023/12/30 07:44:37;;;;;;;4.30;0.98;;;;;;;;;;5041076;28;20437;-69
2023/12/30 07:47:06;;;;;;;1.63;0.80;;;;;;;;;;5037111;28;20900;-69
2023/12/30 07:49:35;;;;;;;3.20;0.70;;;;;;;;;;5040099;28;20433;-69
2023/12/30 07:52:02;;;;;;;2.72;0.75;;;;;;;;;;5034241;28;20518;-69
2023/12/30 07:54:32;;;;;;;2.40;0.83;;;;;;;;;;5043237;28;20425;-68
2023/12/30 07:57:00;;;;;;;4.70;0.70;;;;;;;;;;5041393;28;20429;-66
2023/12/30 07:59:27;;;;;;;2.40;0.87;;;;;;;;;;5041951;28;20425;-66
2023/12/30 08:01:56;;;;;;;3.08;1.08;;;;;;;;;;5047980;28;20461;-68
2023/12/30 08:04:24;;;;;;;2.50;0.98;;;;;;;;;;5040342;28;20459;-68
2023/12/30 08:06:52;;;;;;;3.97;0.90;;;;;;;;;;5046117;28;21134;-68
2023/12/30 08:09:19;;;;;;;2.33;1.00;;;;;;;;;;5043889;28;20436;-68
2023/12/30 08:11:46;;;;;;;4.82;1.23;;;;;;;;;;5039893;28;20452;-68
2023/12/30 08:14:28;;;;;;;5.60;1.27;;;;;;;;;;5046265;28;20911;-68
2023/12/30 08:16:55;;;;;;;4.05;1.20;;;;;;;;;;5043641;28;20427;-68
2023/12/30 08:19:22;;;;;;;4.18;1.15;;;;;;;;;;5038777;28;20468;-68
2023/12/30 08:21:50;;;;;;;6.97;1.65;;;;;;;;;;5030956;28;20434;-68
2023/12/30 08:24:19;;;;;;;5.20;1.30;;;;;;;;;;5041057;28;20942;-68
2023/12/30 08:26:46;;;;;;;3.33;1.27;;;;;;;;;;5040157;28;20439;-68
2023/12/30 08:29:14;;;;;;;4.28;1.77;;;;;;;;;;5041054;28;20434;-68
2023/12/30 08:31:45;;;;;;;4.88;1.23;;;;;;;;;;5041562;28;20842;-68
2023/12/30 08:34:13;;;;;;;4.13;1.52;;;;;;;;;;5036799;28;20462;-68
2023/12/30 08:36:42;;;;;;;5.32;1.60;;;;;;;;;;5040777;28;20527;-68
2023/12/30 08:39:09;;;;;;;4.90;1.75;;;;;;;;;;5041388;28;20922;-68
2023/12/30 08:41:36;;;;;;;5.63;1.58;;;;;;;;;;5035080;28;20433;-68
2023/12/30 08:44:03;;;;;;;5.03;1.60;;;;;;;;;;5037646;28;20506;-68
2023/12/30 08:46:33;;;;;;;4.80;1.50;;;;;;;;;;5039643;28;21075;-68
2023/12/30 08:49:01;;;;;;;3.67;1.50;;;;;;;;;;5032327;28;20848;-68
2023/12/30 08:51:32;;;;;;;3.20;1.50;;;;;;;;;;5039755;28;20502;-68
2023/12/30 08:53:59;;;;;;;2.97;1.23;;;;;;;;;;5032960;28;20429;-68
2023/12/30 08:56:32;;;;;;;3.60;1.60;;;;;;;;;;5031850;28;20484;-68
2023/12/30 08:59:00;;;;;;;4.85;1.65;;;;;;;;;;5038789;28;20436;-68
2023/12/30 09:01:27;;;;;;;4.38;1.40;;;;;;;;;;5035438;28;20817;-68
2023/12/30 09:03:54;;;;;;;3.22;1.50;;;;;;;;;;5038492;28;20432;-68
2023/12/30 09:06:25;;;;;;;3.72;1.35;;;;;;;;;;5035033;28;20450;-68
2023/12/30 09:08:52;;;;;;;4.13;1.40;;;;;;;;;;5037610;28;20433;-68
2023/12/30 09:11:20;;;;;;;4.78;1.40;;;;;;;;;;5037187;28;20968;-68
2023/12/30 09:13:48;;;;;;;5.72;1.75;;;;;;;;;;5034903;28;20513;-68
2023/12/30 09:16:15;;;;;;;5.72;1.40;;;;;;;;;;5036155;28;20584;-68
2023/12/30 09:18:43;;;;;;;4.90;1.33;;;;;;;;;;5043312;28;20516;-68
2023/12/30 09:21:10;;;;;;;3.60;1.38;;;;;;;;;;5039543;28;20433;-68
2023/12/30 09:23:37;;;;;;;3.57;1.63;;;;;;;;;;5035177;28;20437;-68
2023/12/30 09:26:05;;;;;;;5.07;1.80;;;;;;;;;;5035896;28;20436;-68
2023/12/30 09:28:35;;;;;;;4.95;1.75;;;;;;;;;;5038238;28;20434;-68
2023/12/30 09:31:03;;;;;;;4.07;1.45;;;;;;;;;;5033523;28;20593;-68
2023/12/30 09:33:30;;;;;;;4.35;1.58;;;;;;;;;;5037063;28;21217;-68
2023/12/30 09:36:01;;;;;;;4.87;1.20;;;;;;;;;;5034644;28;20449;-68
2023/12/30 09:38:28;;;;;;;4.68;1.60;;;;;;;;;;5038943;28;20439;-68
2023/12/30 09:40:55;;;;;;;3.22;1.33;;;;;;;;;;5029410;28;21048;-68
2023/12/30 09:43:26;;;;;;;2.53;1.13;;;;;;;;;;5032926;28;20514;-68
2023/12/30 09:45:54;;;;;;;3.83;1.60;;;;;;;;;;5039712;28;20437;-68
2023/12/30 09:48:25;;;;;;;2.50;1.15;;;;;;;;;;5039324;28;20526;-68
2023/12/30 09:50:57;;;;;;;3.63;1.30;;;;;;;;;;5028700;28;20429;-68
2023/12/30 09:53:25;;;;;;;4.97;1.30;;;;;;;;;;5030842;28;20439;-68
2023/12/30 09:55:53;;;;;;;5.03;1.30;;;;;;;;;;5030488;28;20433;-68
2023/12/30 09:58:22;;;;;;;3.10;1.20;;;;;;;;;;5042749;28;20895;-69
2023/12/30 10:00:49;;;;;;;4.45;1.38;;;;;;;;;;5031550;28;20433;-68
2023/12/30 10:03:18;;;;;;;3.25;1.52;;;;;;;;;;5034747;28;20430;-68
2023/12/30 10:05:46;;;;;;;4.80;1.58;;;;;;;;;;5037311;28;20431;-68
2023/12/30 10:08:15;;;;;;;6.28;1.50;;;;;;;;;;5038583;28;20914;-68
2023/12/30 10:10:49;;;;;;;3.73;1.37;;;;;;;;;;5040326;28;20740;-68
2023/12/30 10:13:22;;;;;;;3.97;1.35;;;;;;;;;;5035240;28;20488;-68
2023/12/30 10:15:50;;;;;;;2.45;1.20;;;;;;;;;;5033264;28;20850;-68
2023/12/30 10:18:17;;;;;;;3.15;1.27;;;;;;;;;;5033757;28;22382;-68
2023/12/30 10:20:45;;;;;;;3.08;1.27;;;;;;;;;;5029745;28;20435;-68
2023/12/30 10:23:13;;;;;;;3.90;1.38;;;;;;;;;;5028001;28;20435;-68
2023/12/30 10:25:41;;;;;;;7.78;1.30;;;;;;;;;;5034759;28;20434;-68
2023/12/30 10:28:09;;;;;;;2.38;1.23;;;;;;;;;;5039825;28;20429;-68
2023/12/30 10:30:37;;;;;;;3.67;1.20;;;;;;;;;;5039662;28;20437;-68
2023/12/30 10:33:12;;;;;;;4.95;1.48;;;;;;;;;;5041455;28;20866;-68
2023/12/30 10:35:44;;;;;;;5.25;1.38;;;;;;;;;;5041048;28;20992;-68
2023/12/30 10:38:14;;;;;;;4.53;1.52;;;;;;;;;;5034716;28;20435;-68
2023/12/30 10:40:43;;;;;;;4.75;1.40;;;;;;;;;;5041840;28;20440;-68
2023/12/30 10:43:12;;;;;;;2.45;1.20;;;;;;;;;;5040717;28;20885;-68
2023/12/30 10:45:40;;;;;;;3.72;1.20;;;;;;;;;;5037190;28;20433;-68
2023/12/30 10:48:07;;;;;;;3.40;1.40;;;;;;;;;;5032723;28;20427;-68
2023/12/30 10:50:37;;;;;;;3.30;1.15;;;;;;;;;;5034985;28;20511;-68
2023/12/30 10:53:12;;;;;;;3.05;1.15;;;;;;;;;;5035951;28;20461;-68
2023/12/30 10:55:41;;;;;;;3.67;1.10;;;;;;;;;;5038564;28;20500;-68
2023/12/30 10:58:24;;;;;;;2.85;1.20;;;;;;;;;;5035901;28;20445;-63
2023/12/30 11:00:58;;;;;;;5.03;1.30;;;;;;;;;;5029307;28;20455;-66
2023/12/30 11:03:26;;;;;;;3.38;1.00;;;;;;;;;;5039796;28;20437;-66
2023/12/30 11:06:02;;;;;;;3.60;1.20;;;;;;;;;;5035560;28;20895;-67
2023/12/30 11:08:29;;;;;;;3.35;1.40;;;;;;;;;;5029274;28;20539;-68
2023/12/30 11:11:01;;;;;;;2.78;1.05;;;;;;;;;;5039842;28;20432;-68
2023/12/30 11:13:41;;;;;;;4.65;1.50;;;;;;;;;;5036423;28;20429;-68
2023/12/30 11:16:26;;;;;;;3.28;1.02;;;;;;;;;;5035910;28;20438;-67
2023/12/30 11:18:55;;;;;;;2.72;1.20;;;;;;;;;;5043861;28;21185;-67
2023/12/30 11:21:42;;;;;;;3.60;1.43;;;;;;;;;;5045003;28;20436;-67
2023/12/30 11:24:13;;;;;;;3.50;1.03;;;;;;;;;;5042857;28;20440;-67
2023/12/30 11:26:41;;;;;;;4.47;1.40;;;;;;;;;;5044115;28;20442;-67
2023/12/30 11:29:26;;;;;;;4.87;1.10;;;;;;;;;;5039820;28;20562;-67
2023/12/30 11:31:54;;;;;;;4.25;1.60;;;;;;;;;;5030430;28;21174;-67
2023/12/30 11:34:21;;;;;;;5.57;1.30;;;;;;;;;;5043882;28;20508;-67
2023/12/30 11:36:53;;;;;;;3.05;1.30;;;;;;;;;;5038110;28;20990;-68
2023/12/30 11:39:33;;;;;;;2.70;1.13;;;;;;;;;;5032913;28;20489;-67
2023/12/30 11:42:03;;;;;;;2.10;1.02;;;;;;;;;;5027935;28;20804;-67
2023/12/30 11:44:30;;;;;;;4.07;1.25;;;;;;;;;;5040805;28;20969;-67
2023/12/30 11:46:58;;;;;;;4.55;1.10;;;;;;;;;;5044388;28;20445;-67
2023/12/30 11:49:26;;;;;;;4.80;1.20;;;;;;;;;;5043081;28;20517;-67
2023/12/30 11:52:04;;;;;;;2.40;0.90;;;;;;;;;;5037803;28;20441;-67
2023/12/30 11:54:32;;;;;;;4.88;1.10;;;;;;;;;;5031137;28;20433;-66
2023/12/30 11:57:00;;;;;;;2.00;0.90;;;;;;;;;;5037279;28;20427;-68
2023/12/30 11:59:31;;;;;;;2.75;1.08;;;;;;;;;;5042478;28;20492;-66
2023/12/30 12:02:14;;;;;;;4.10;1.10;;;;;;;;;;5044444;28;21034;-66
2023/12/30 12:04:45;;;;;;;3.95;1.30;;;;;;;;;;5036902;28;20479;-66
2023/12/30 12:07:12;;;;;;;3.90;1.40;;;;;;;;;;5036778;28;20446;-66
2023/12/30 12:09:42;;;;;;;4.53;1.05;;;;;;;;;;5030420;28;20427;-66
2023/12/30 12:12:11;;;;;;;1.92;1.10;;;;;;;;;;5039530;28;20438;-66
2023/12/30 12:14:39;;;;;;;5.45;1.65;;;;;;;;;;5035137;28;20903;-66
2023/12/30 12:17:08;;;;;;;4.53;1.10;;;;;;;;;;5038105;28;20430;-68
2023/12/30 12:19:38;;;;;;;4.70;1.40;;;;;;;;;;5035299;28;20443;-68
2023/12/30 12:22:05;;;;;;;3.17;1.23;;;;;;;;;;5029923;28;20430;-68
2023/12/30 12:24:33;;;;;;;5.75;1.33;;;;;;;;;;5032084;28;20440;-68
2023/12/30 12:27:00;;;;;;;2.53;1.15;;;;;;;;;;5036342;28;20492;-68
2023/12/30 12:29:27;;;;;;;5.15;1.05;;;;;;;;;;5042848;28;20425;-68
2023/12/30 12:31:56;;;;;;;4.53;1.35;;;;;;;;;;5030673;28;20431;-68
2023/12/30 12:34:24;;;;;;;4.80;1.20;;;;;;;;;;5047034;28;20433;-68
2023/12/30 12:36:52;;;;;;;3.77;0.90;;;;;;;;;;5040018;28;20830;-68
2023/12/30 12:39:19;;;;;;;4.43;1.42;;;;;;;;;;5045466;28;20434;-68
2023/12/30 12:41:46;;;;;;;3.15;1.10;;;;;;;;;;5030068;28;20434;-68
2023/12/30 12:44:14;;;;;;;5.18;1.27;;;;;;;;;;5036890;28;20439;-68
2023/12/30 12:46:44;;;;;;;6.43;1.35;;;;;;;;;;5042468;28;20499;-68
2023/12/30 12:49:13;;;;;;;5.63;1.45;;;;;;;;;;5033441;28;20426;-68
2023/12/30 12:51:43;;;;;;;2.65;1.00;;;;;;;;;;5034682;28;21142;-68
2023/12/30 12:54:11;;;;;;;3.65;1.60;;;;;;;;;;5040029;28;20434;-68
2023/12/30 12:56:38;;;;;;;5.13;1.50;;;;;;;;;;5034539;28;20434;-68
2023/12/30 12:59:05;;;;;;;3.10;1.33;;;;;;;;;;5028820;28;20508;-68
2023/12/30 13:01:32;;;;;;;3.55;1.20;;;;;;;;;;5035358;28;20842;-68
2023/12/30 13:04:02;;;;;;;3.17;1.30;;;;;;;;;;5033378;28;20426;-68
2023/12/30 13:06:35;;;;;;;6.20;1.50;;;;;;;;;;5033789;28;20437;-68
2023/12/30 13:09:19;;;;;;;3.58;1.38;;;;;;;;;;5036595;28;20475;-68
2023/12/30 13:11:46;;;;;;;2.65;1.20;;;;;;;;;;5033770;28;20454;-68
2023/12/30 13:14:18;;;;;;;3.67;1.25;;;;;;;;;;5028756;28;20486;-68
2023/12/30 13:16:46;;;;;;;3.47;1.27;;;;;;;;;;5036335;28;20439;-68
2023/12/30 13:19:13;;;;;;;6.00;1.40;;;;;;;;;;5036177;28;20446;-68
2023/12/30 13:21:46;;;;;;;3.60;1.05;;;;;;;;;;5034737;28;20992;-68
2023/12/30 13:24:17;;;;;;;4.07;1.45;;;;;;;;;;5037465;28;20470;-68
2023/12/30 13:26:45;;;;;;;3.22;0.98;;;;;;;;;;5040400;28;20521;-68
2023/12/30 13:29:12;;;;;;;3.08;1.00;;;;;;;;;;5047690;28;20491;-68
2023/12/30 13:31:40;;;;;;;4.40;1.40;;;;;;;;;;5035581;28;20438;-68
2023/12/30 13:34:08;;;;;;;3.90;1.40;;;;;;;;;;5036311;28;20430;-67
2023/12/30 13:36:36;;;;;;;5.57;1.10;;;;;;;;;;5028678;28;20435;-66
2023/12/30 13:39:10;;;;;;;3.88;1.23;;;;;;;;;;5038020;28;20441;-67
2023/12/30 13:41:37;;;;;;;3.75;1.20;;;;;;;;;;5041587;28;20470;-67
2023/12/30 13:44:05;;;;;;;2.78;1.27;;;;;;;;;;5042255;28;20428;-67
2023/12/30 13:51:37;;;;;;;5.47;1.45;;;;;;;;;;5038169;28;20437;-67
2023/12/30 13:54:09;;;;;;;3.70;1.10;;;;;;;;;;5042292;28;20465;-67
2023/12/30 13:56:41;;;;;;;3.45;1.25;;;;;;;;;;5035130;28;21045;-67
2023/12/30 13:59:09;;;;;;;2.80;1.30;;;;;;;;;;5042922;28;20429;-67
2023/12/30 14:01:37;;;;;;;4.30;1.60;;;;;;;;;;5038970;28;20443;-67
2023/12/30 14:04:07;;;;;;;5.40;1.37;;;;;;;;;;5042149;28;20513;-66
2023/12/30 14:06:39;;;;;;;4.78;1.50;;;;;;;;;;5033211;28;20431;-67
2023/12/30 14:09:40;;;;;;;3.53;1.17;;;;;;;;;;5036073;28;20451;-66
2023/12/30 14:12:11;;;;;;;3.35;1.20;;;;;;;;;;5043345;28;20508;-66
2023/12/30 14:14:44;;;;;;;3.50;1.20;;;;;;;;;;5038822;28;20461;-67
2023/12/30 14:17:13;;;;;;;3.17;1.13;;;;;;;;;;5046361;28;20487;-66
2023/12/30 14:19:41;;;;;;;2.80;1.30;;;;;;;;;;5037806;28;20431;-66
2023/12/30 14:22:08;;;;;;;4.90;1.33;;;;;;;;;;5029688;28;20444;-66
2023/12/30 14:24:36;;;;;;;6.80;1.30;;;;;;;;;;5035866;28;20468;-67
2023/12/30 14:27:03;;;;;;;10.75;2.60;;;;;;;;;;5034966;28;20440;-67
2023/12/30 14:29:30;;;;;;;13.75;2.25;;;;;;;;;;5033336;28;20464;-67
2023/12/30 14:31:57;;;;;;;3.83;1.20;;;;;;;;;;5031938;28;20425;-67
2023/12/30 14:34:24;;;;;;;4.20;1.30;;;;;;;;;;5033987;28;20936;-67
2023/12/30 14:36:54;;;;;;;3.15;1.70;;;;;;;;;;5036584;28;20429;-67
2023/12/30 14:39:25;;;;;;;4.00;1.40;;;;;;;;;;5042197;28;20989;-67
2023/12/30 14:41:52;;;;;;;5.40;1.30;;;;;;;;;;5040219;28;20524;-67
2023/12/30 14:44:22;;;;;;;7.95;2.00;;;;;;;;;;5035781;28;20439;-67
2023/12/30 14:46:52;;;;;;;3.53;1.20;;;;;;;;;;5041977;28;20430;-67
2023/12/30 14:49:19;;;;;;;5.68;1.60;;;;;;;;;;5040596;28;20967;-67
2023/12/30 14:51:47;;;;;;;2.72;1.20;;;;;;;;;;5043716;28;20794;-67
2023/12/30 14:54:14;;;;;;;4.00;1.30;;;;;;;;;;5046038;28;20436;-67
2023/12/30 14:56:42;;;;;;;7.50;1.60;;;;;;;;;;5039413;28;20520;-67